sensor_id;sensor_type;location;lat;lon;timestamp;temperature;humidity
2002;DHT22;1003;48.002;7.788;2023-06-14T00:00:28;13.90;95.20
2002;DHT22;1003;48.002;7.788;2023-06-14T00:02:56;13.90;95.20
2002;DHT22;1003;48.002;7.788;2023-06-14T00:05:23;13.90;95.10
2002;DHT22;1003;48.002;7.788;2023-06-14T00:07:50;13.90;94.90
2002;DHT22;1003;48.002;7.788;2023-06-14T00:10:19;13.90;95.80
2002;DHT22;1003;48.002;7.788;2023-06-14T00:12:46;13.90;96.50
2002;DHT22;1003;48.002;7.788;2023-06-14T00:15:14;13.80;96.80
2002;DHT22;1003;48.002;7.788;2023-06-14T00:17:41;13.80;97.10
2002;DHT22;1003;48.002;7.788;2023-06-14T00:20:12;13.80;97.80
2002;DHT22;1003;48.002;7.788;2023-06-14T00:22:39;13.70;98.10
2002;DHT22;1003;48.002;7.788;2023-06-14T00:25:07;13.60;99.30
2002;DHT22;1003;48.002;7.788;2023-06-14T00:27:34;13.50;99.70
2002;DHT22;1003;48.002;7.788;2023-06-14T00:30:01;13.30;99.90
2002;DHT22;1003;48.002;7.788;2023-06-14T00:32:29;13.20;99.90
2002;DHT22;1003;48.002;7.788;2023-06-14T00:34:56;12.90;99.90
2002;DHT22;1003;48.002;7.788;2023-06-14T00:37:23;12.70;99.90
2002;DHT22;1003;48.002;7.788;2023-06-14T00:39:50;12.70;99.90
2002;DHT22;1003;48.002;7.788;2023-06-14T00:42:24;12.60;99.90
2002;DHT22;1003;48.002;7.788;2023-06-14T00:44:52;12.50;99.90
2002;DHT22;1003;48.002;7.788;2023-06-14T00:47:19;12.50;99.90
2002;DHT22;1003;48.002;7.788;2023-06-14T00:49:49;12.40;99.90
2002;DHT22;1003;48.002;7.788;2023-06-14T00:52:17;12.40;99.90
2002;DHT22;1003;48.002;7.788;2023-06-14T00:54:45;12.30;99.90
2002;DHT22;1003;48.002;7.788;2023-06-14T00:57:13;12.40;99.90
2002;DHT22;1003;48.002;7.788;2023-06-14T00:59:43;12.30;99.90
2002;DHT22;1003;48.002;7.788;2023-06-14T01:02:11;12.30;99.90
2002;DHT22;1003;48.002;7.788;2023-06-14T01:04:40;12.20;99.90
2002;DHT22;1003;48.002;7.788;2023-06-14T01:07:18;12.20;99.90
2002;DHT22;1003;48.002;7.788;2023-06-14T01:10:04;12.20;99.90
2002;DHT22;1003;48.002;7.788;2023-06-14T01:12:48;12.20;99.90
2002;DHT22;1003;48.002;7.788;2023-06-14T01:15:23;12.20;99.90
2002;DHT22;1003;48.002;7.788;2023-06-14T01:17:51;12.30;99.90
2002;DHT22;1003;48.002;7.788;2023-06-14T01:20:22;12.40;99.90
2002;DHT22;1003;48.002;7.788;2023-06-14T01:22:56;12.30;99.90
2002;DHT22;1003;48.002;7.788;2023-06-14T01:25:23;12.20;99.90
2002;DHT22;1003;48.002;7.788;2023-06-14T01:27:52;12.00;99.90
2002;DHT22;1003;48.002;7.788;2023-06-14T01:30:23;11.80;99.90
2002;DHT22;1003;48.002;7.788;2023-06-14T01:32:52;11.70;99.90
2002;DHT22;1003;48.002;7.788;2023-06-14T01:35:22;11.60;99.90
2002;DHT22;1003;48.002;7.788;2023-06-14T01:37:50;11.50;99.90
2002;DHT22;1003;48.002;7.788;2023-06-14T01:40:21;11.60;99.90
2002;DHT22;1003;48.002;7.788;2023-06-14T01:42:50;11.50;99.90
2002;DHT22;1003;48.002;7.788;2023-06-14T01:45:18;11.50;99.90
2002;DHT22;1003;48.002;7.788;2023-06-14T01:47:47;11.50;99.90
2002;DHT22;1003;48.002;7.788;2023-06-14T01:50:15;11.50;99.90
2002;DHT22;1003;48.002;7.788;2023-06-14T01:52:43;11.60;99.90
2002;DHT22;1003;48.002;7.788;2023-06-14T01:55:11;11.60;99.90
2002;DHT22;1003;48.002;7.788;2023-06-14T01:57:39;11.70;99.90
2002;DHT22;1003;48.002;7.788;2023-06-14T02:00:07;11.80;99.90
2002;DHT22;1003;48.002;7.788;2023-06-14T02:02:38;11.80;99.90
2002;DHT22;1003;48.002;7.788;2023-06-14T02:05:05;11.80;99.90
2002;DHT22;1003;48.002;7.788;2023-06-14T02:07:33;11.90;99.90
2002;DHT22;1003;48.002;7.788;2023-06-14T02:10:00;12.00;99.90
2002;DHT22;1003;48.002;7.788;2023-06-14T02:12:27;12.00;99.90
2002;DHT22;1003;48.002;7.788;2023-06-14T02:14:55;12.10;99.90
2002;DHT22;1003;48.002;7.788;2023-06-14T02:17:22;12.10;99.90
2002;DHT22;1003;48.002;7.788;2023-06-14T02:19:50;12.20;99.90
2002;DHT22;1003;48.002;7.788;2023-06-14T02:22:17;12.30;99.90
2002;DHT22;1003;48.002;7.788;2023-06-14T02:24:46;12.40;99.90
2002;DHT22;1003;48.002;7.788;2023-06-14T02:27:13;12.40;99.90
2002;DHT22;1003;48.002;7.788;2023-06-14T02:29:40;12.40;99.90
2002;DHT22;1003;48.002;7.788;2023-06-14T02:32:08;12.40;99.90
2002;DHT22;1003;48.002;7.788;2023-06-14T02:34:36;12.30;99.90
2002;DHT22;1003;48.002;7.788;2023-06-14T02:37:06;12.30;99.90
2002;DHT22;1003;48.002;7.788;2023-06-14T02:39:33;12.30;99.90
2002;DHT22;1003;48.002;7.788;2023-06-14T02:42:01;12.30;99.90
2002;DHT22;1003;48.002;7.788;2023-06-14T02:44:29;12.30;99.90
2002;DHT22;1003;48.002;7.788;2023-06-14T02:46:57;12.30;99.90
2002;DHT22;1003;48.002;7.788;2023-06-14T02:49:27;12.30;99.90
2002;DHT22;1003;48.002;7.788;2023-06-14T02:51:55;12.30;99.90
2002;DHT22;1003;48.002;7.788;2023-06-14T02:54:22;12.30;99.90
2002;DHT22;1003;48.002;7.788;2023-06-14T02:56:49;12.30;99.90
2002;DHT22;1003;48.002;7.788;2023-06-14T02:59:16;12.30;99.90
2002;DHT22;1003;48.002;7.788;2023-06-14T03:01:44;12.30;99.90
2002;DHT22;1003;48.002;7.788;2023-06-14T03:04:11;12.30;99.90
2002;DHT22;1003;48.002;7.788;2023-06-14T03:06:41;12.20;99.90
2002;DHT22;1003;48.002;7.788;2023-06-14T03:09:10;12.20;99.90
2002;DHT22;1003;48.002;7.788;2023-06-14T03:11:37;12.20;99.90
2002;DHT22;1003;48.002;7.788;2023-06-14T03:14:04;12.20;99.90
2002;DHT22;1003;48.002;7.788;2023-06-14T03:16:33;12.10;99.90
2002;DHT22;1003;48.002;7.788;2023-06-14T03:19:00;11.90;99.90
2002;DHT22;1003;48.002;7.788;2023-06-14T03:21:28;11.80;99.90
2002;DHT22;1003;48.002;7.788;2023-06-14T03:23:56;11.60;99.90
2002;DHT22;1003;48.002;7.788;2023-06-14T03:26:23;11.00;99.90
2002;DHT22;1003;48.002;7.788;2023-06-14T03:28:50;10.80;99.90
2002;DHT22;1003;48.002;7.788;2023-06-14T03:31:17;10.70;99.90
2002;DHT22;1003;48.002;7.788;2023-06-14T03:33:45;10.80;99.90
2002;DHT22;1003;48.002;7.788;2023-06-14T03:36:12;10.80;99.90
2002;DHT22;1003;48.002;7.788;2023-06-14T03:38:39;10.80;99.90
2002;DHT22;1003;48.002;7.788;2023-06-14T03:41:07;10.80;99.90
2002;DHT22;1003;48.002;7.788;2023-06-14T03:43:35;10.70;99.90
2002;DHT22;1003;48.002;7.788;2023-06-14T03:46:02;10.70;99.90
2002;DHT22;1003;48.002;7.788;2023-06-14T03:48:29;10.80;99.90
2002;DHT22;1003;48.002;7.788;2023-06-14T03:50:56;10.80;99.90
2002;DHT22;1003;48.002;7.788;2023-06-14T03:53:23;10.90;99.90
2002;DHT22;1003;48.002;7.788;2023-06-14T03:55:53;10.90;99.90
2002;DHT22;1003;48.002;7.788;2023-06-14T03:58:21;11.00;99.90
2002;DHT22;1003;48.002;7.788;2023-06-14T04:00:48;11.10;99.90
2002;DHT22;1003;48.002;7.788;2023-06-14T04:03:15;11.10;99.90
2002;DHT22;1003;48.002;7.788;2023-06-14T04:05:42;11.10;99.90
2002;DHT22;1003;48.002;7.788;2023-06-14T04:08:10;11.20;99.90
2002;DHT22;1003;48.002;7.788;2023-06-14T04:10:40;11.20;99.90
2002;DHT22;1003;48.002;7.788;2023-06-14T04:13:07;11.30;99.90
2002;DHT22;1003;48.002;7.788;2023-06-14T04:15:38;11.30;99.90
2002;DHT22;1003;48.002;7.788;2023-06-14T04:18:07;11.30;99.90
2002;DHT22;1003;48.002;7.788;2023-06-14T04:20:35;11.40;99.90
2002;DHT22;1003;48.002;7.788;2023-06-14T04:23:11;11.40;99.90
2002;DHT22;1003;48.002;7.788;2023-06-14T04:25:39;11.40;99.90
2002;DHT22;1003;48.002;7.788;2023-06-14T04:28:11;11.30;99.90
2002;DHT22;1003;48.002;7.788;2023-06-14T04:30:41;11.20;99.90
2002;DHT22;1003;48.002;7.788;2023-06-14T04:33:08;11.30;99.90
2002;DHT22;1003;48.002;7.788;2023-06-14T04:35:35;11.60;99.90
2002;DHT22;1003;48.002;7.788;2023-06-14T04:38:04;12.10;99.90
2002;DHT22;1003;48.002;7.788;2023-06-14T04:40:35;12.80;99.90
2002;DHT22;1003;48.002;7.788;2023-06-14T04:43:08;13.50;99.90
2002;DHT22;1003;48.002;7.788;2023-06-14T04:45:38;14.20;99.90
2002;DHT22;1003;48.002;7.788;2023-06-14T04:48:06;14.80;99.90
2002;DHT22;1003;48.002;7.788;2023-06-14T04:50:33;15.10;99.90
2002;DHT22;1003;48.002;7.788;2023-06-14T04:53:01;15.50;99.90
2002;DHT22;1003;48.002;7.788;2023-06-14T04:55:28;15.80;99.90
2002;DHT22;1003;48.002;7.788;2023-06-14T04:57:56;16.00;99.90
2002;DHT22;1003;48.002;7.788;2023-06-14T05:00:23;16.00;99.90
2002;DHT22;1003;48.002;7.788;2023-06-14T05:02:50;16.30;99.90
2002;DHT22;1003;48.002;7.788;2023-06-14T05:05:20;16.60;99.90
2002;DHT22;1003;48.002;7.788;2023-06-14T05:07:47;16.90;99.90
2002;DHT22;1003;48.002;7.788;2023-06-14T05:10:14;17.50;99.90
2002;DHT22;1003;48.002;7.788;2023-06-14T05:12:41;17.90;99.90
2002;DHT22;1003;48.002;7.788;2023-06-14T05:15:09;18.10;99.90
2002;DHT22;1003;48.002;7.788;2023-06-14T05:17:37;18.30;99.90
2002;DHT22;1003;48.002;7.788;2023-06-14T05:20:07;18.70;99.90
2002;DHT22;1003;48.002;7.788;2023-06-14T05:22:38;19.20;99.90
2002;DHT22;1003;48.002;7.788;2023-06-14T05:25:06;19.20;99.90
2002;DHT22;1003;48.002;7.788;2023-06-14T05:27:33;19.60;99.90
2002;DHT22;1003;48.002;7.788;2023-06-14T05:30:03;19.80;99.90
2002;DHT22;1003;48.002;7.788;2023-06-14T05:32:30;19.90;99.90
2002;DHT22;1003;48.002;7.788;2023-06-14T05:34:57;19.80;99.90
2002;DHT22;1003;48.002;7.788;2023-06-14T05:37:25;19.70;99.90
2002;DHT22;1003;48.002;7.788;2023-06-14T05:39:53;20.00;99.90
2002;DHT22;1003;48.002;7.788;2023-06-14T05:42:20;20.10;99.90
2002;DHT22;1003;48.002;7.788;2023-06-14T05:44:47;20.20;99.90
2002;DHT22;1003;48.002;7.788;2023-06-14T05:47:14;20.20;99.90
2002;DHT22;1003;48.002;7.788;2023-06-14T05:49:41;20.40;99.90
2002;DHT22;1003;48.002;7.788;2023-06-14T05:52:10;20.30;99.90
2002;DHT22;1003;48.002;7.788;2023-06-14T05:54:38;20.20;99.90
2002;DHT22;1003;48.002;7.788;2023-06-14T05:57:08;20.30;99.90
2002;DHT22;1003;48.002;7.788;2023-06-14T05:59:36;20.30;99.90
2002;DHT22;1003;48.002;7.788;2023-06-14T06:02:03;20.40;99.90
2002;DHT22;1003;48.002;7.788;2023-06-14T06:04:30;20.20;99.90
2002;DHT22;1003;48.002;7.788;2023-06-14T06:06:57;20.00;99.90
2002;DHT22;1003;48.002;7.788;2023-06-14T06:09:25;19.80;99.90
2002;DHT22;1003;48.002;7.788;2023-06-14T06:11:52;19.80;99.90
2002;DHT22;1003;48.002;7.788;2023-06-14T06:14:20;20.10;99.90
2002;DHT22;1003;48.002;7.788;2023-06-14T06:16:48;20.40;99.90
2002;DHT22;1003;48.002;7.788;2023-06-14T06:19:15;20.20;99.90
2002;DHT22;1003;48.002;7.788;2023-06-14T06:21:42;20.00;99.90
2002;DHT22;1003;48.002;7.788;2023-06-14T06:24:09;19.70;99.90
2002;DHT22;1003;48.002;7.788;2023-06-14T06:26:36;19.60;99.90
2002;DHT22;1003;48.002;7.788;2023-06-14T06:29:04;19.90;99.90
2002;DHT22;1003;48.002;7.788;2023-06-14T06:31:32;19.80;99.90
2002;DHT22;1003;48.002;7.788;2023-06-14T06:34:00;20.20;99.90
2002;DHT22;1003;48.002;7.788;2023-06-14T06:36:27;20.60;99.90
2002;DHT22;1003;48.002;7.788;2023-06-14T06:38:54;20.60;99.90
2002;DHT22;1003;48.002;7.788;2023-06-14T06:41:21;20.90;99.90
2002;DHT22;1003;48.002;7.788;2023-06-14T06:43:48;20.90;99.90
2002;DHT22;1003;48.002;7.788;2023-06-14T06:46:15;20.80;99.90
2002;DHT22;1003;48.002;7.788;2023-06-14T06:48:45;21.00;99.90
2002;DHT22;1003;48.002;7.788;2023-06-14T06:51:12;21.10;99.90
2002;DHT22;1003;48.002;7.788;2023-06-14T06:53:41;21.20;99.90
2002;DHT22;1003;48.002;7.788;2023-06-14T06:56:10;21.20;99.90
2002;DHT22;1003;48.002;7.788;2023-06-14T06:58:37;21.30;99.90
2002;DHT22;1003;48.002;7.788;2023-06-14T07:01:04;21.70;99.90
2002;DHT22;1003;48.002;7.788;2023-06-14T07:03:31;21.50;99.90
2002;DHT22;1003;48.002;7.788;2023-06-14T07:06:00;21.50;99.90
2002;DHT22;1003;48.002;7.788;2023-06-14T07:08:27;21.60;99.90
2002;DHT22;1003;48.002;7.788;2023-06-14T07:10:54;22.00;99.90
2002;DHT22;1003;48.002;7.788;2023-06-14T07:13:21;21.90;99.90
2002;DHT22;1003;48.002;7.788;2023-06-14T07:15:48;22.00;99.90
2002;DHT22;1003;48.002;7.788;2023-06-14T07:18:15;22.00;99.90
2002;DHT22;1003;48.002;7.788;2023-06-14T07:20:42;22.30;99.90
2002;DHT22;1003;48.002;7.788;2023-06-14T07:23:11;22.70;99.90
2002;DHT22;1003;48.002;7.788;2023-06-14T07:25:38;22.60;99.90
2002;DHT22;1003;48.002;7.788;2023-06-14T07:28:05;22.60;99.90
2002;DHT22;1003;48.002;7.788;2023-06-14T07:30:32;22.50;99.90
2002;DHT22;1003;48.002;7.788;2023-06-14T07:32:59;22.40;99.90
2002;DHT22;1003;48.002;7.788;2023-06-14T07:35:26;22.60;99.80
2002;DHT22;1003;48.002;7.788;2023-06-14T07:37:53;22.70;99.50
2002;DHT22;1003;48.002;7.788;2023-06-14T07:40:22;22.70;97.00
2002;DHT22;1003;48.002;7.788;2023-06-14T07:42:49;23.00;98.50
2002;DHT22;1003;48.002;7.788;2023-06-14T07:45:16;23.00;97.90
2002;DHT22;1003;48.002;7.788;2023-06-14T07:47:45;22.90;98.30
2002;DHT22;1003;48.002;7.788;2023-06-14T07:50:12;22.90;99.60
2002;DHT22;1003;48.002;7.788;2023-06-14T07:52:39;22.80;99.80
2002;DHT22;1003;48.002;7.788;2023-06-14T07:55:07;22.80;99.90
2002;DHT22;1003;48.002;7.788;2023-06-14T07:57:36;23.10;99.90
2002;DHT22;1003;48.002;7.788;2023-06-14T08:00:04;23.00;99.90
2002;DHT22;1003;48.002;7.788;2023-06-14T08:02:33;23.20;99.90
2002;DHT22;1003;48.002;7.788;2023-06-14T08:05:00;23.40;99.90
2002;DHT22;1003;48.002;7.788;2023-06-14T08:07:27;23.70;98.80
2002;DHT22;1003;48.002;7.788;2023-06-14T08:09:54;23.60;99.30
2002;DHT22;1003;48.002;7.788;2023-06-14T08:12:21;23.60;99.60
2002;DHT22;1003;48.002;7.788;2023-06-14T08:14:49;23.60;99.90
2002;DHT22;1003;48.002;7.788;2023-06-14T08:17:17;23.70;99.30
2002;DHT22;1003;48.002;7.788;2023-06-14T08:19:44;23.80;99.90
2002;DHT22;1003;48.002;7.788;2023-06-14T08:22:11;24.00;99.90
2002;DHT22;1003;48.002;7.788;2023-06-14T08:24:38;24.20;99.90
2002;DHT22;1003;48.002;7.788;2023-06-14T08:27:06;24.10;99.90
2002;DHT22;1003;48.002;7.788;2023-06-14T08:29:34;24.00;99.80
2002;DHT22;1003;48.002;7.788;2023-06-14T08:32:03;23.90;99.90
2002;DHT22;1003;48.002;7.788;2023-06-14T08:34:31;24.00;99.70
2002;DHT22;1003;48.002;7.788;2023-06-14T08:36:58;24.40;99.90
2002;DHT22;1003;48.002;7.788;2023-06-14T08:39:25;24.40;98.50
2002;DHT22;1003;48.002;7.788;2023-06-14T08:41:52;24.40;98.20
2002;DHT22;1003;48.002;7.788;2023-06-14T08:44:21;24.40;99.00
2002;DHT22;1003;48.002;7.788;2023-06-14T08:46:48;24.40;99.90
2002;DHT22;1003;48.002;7.788;2023-06-14T08:49:19;24.30;98.50
2002;DHT22;1003;48.002;7.788;2023-06-14T08:51:49;24.40;98.50
2002;DHT22;1003;48.002;7.788;2023-06-14T08:54:19;24.40;98.60
2002;DHT22;1003;48.002;7.788;2023-06-14T08:56:47;24.20;97.50
2002;DHT22;1003;48.002;7.788;2023-06-14T08:59:14;24.00;97.40
2002;DHT22;1003;48.002;7.788;2023-06-14T09:01:44;23.90;97.50
2002;DHT22;1003;48.002;7.788;2023-06-14T09:04:13;24.10;97.20
2002;DHT22;1003;48.002;7.788;2023-06-14T09:06:41;24.00;96.80
2002;DHT22;1003;48.002;7.788;2023-06-14T09:09:09;24.00;96.50
2002;DHT22;1003;48.002;7.788;2023-06-14T09:11:36;24.10;96.40
2002;DHT22;1003;48.002;7.788;2023-06-14T09:14:03;23.90;96.10
2002;DHT22;1003;48.002;7.788;2023-06-14T09:16:32;24.10;97.50
2002;DHT22;1003;48.002;7.788;2023-06-14T09:19:00;24.10;95.80
2002;DHT22;1003;48.002;7.788;2023-06-14T09:21:28;24.00;95.90
2002;DHT22;1003;48.002;7.788;2023-06-14T09:24:03;24.30;96.90
2002;DHT22;1003;48.002;7.788;2023-06-14T09:26:31;24.30;97.00
2002;DHT22;1003;48.002;7.788;2023-06-14T09:28:58;24.20;95.50
2002;DHT22;1003;48.002;7.788;2023-06-14T09:31:25;24.00;96.70
2002;DHT22;1003;48.002;7.788;2023-06-14T09:33:57;23.90;96.20
2002;DHT22;1003;48.002;7.788;2023-06-14T09:36:25;24.00;97.30
2002;DHT22;1003;48.002;7.788;2023-06-14T09:38:53;24.10;97.40
2002;DHT22;1003;48.002;7.788;2023-06-14T09:41:30;24.40;96.40
2002;DHT22;1003;48.002;7.788;2023-06-14T09:43:59;24.40;96.50
2002;DHT22;1003;48.002;7.788;2023-06-14T09:46:28;24.40;96.20
2002;DHT22;1003;48.002;7.788;2023-06-14T09:48:57;24.40;95.70
2002;DHT22;1003;48.002;7.788;2023-06-14T09:51:25;24.40;95.90
2002;DHT22;1003;48.002;7.788;2023-06-14T09:53:57;24.30;95.30
2002;DHT22;1003;48.002;7.788;2023-06-14T09:56:29;24.40;96.30
2002;DHT22;1003;48.002;7.788;2023-06-14T09:58:58;24.40;96.20
2002;DHT22;1003;48.002;7.788;2023-06-14T10:01:29;24.40;94.90
2002;DHT22;1003;48.002;7.788;2023-06-14T10:04:02;24.40;95.20
2002;DHT22;1003;48.002;7.788;2023-06-14T10:06:31;24.50;96.30
2002;DHT22;1003;48.002;7.788;2023-06-14T10:08:59;24.50;94.40
2002;DHT22;1003;48.002;7.788;2023-06-14T10:11:28;24.50;94.00
2002;DHT22;1003;48.002;7.788;2023-06-14T10:13:56;24.60;93.70
2002;DHT22;1003;48.002;7.788;2023-06-14T10:16:30;24.50;93.20
2002;DHT22;1003;48.002;7.788;2023-06-14T10:19:05;24.40;94.20
2002;DHT22;1003;48.002;7.788;2023-06-14T10:21:55;24.50;95.00
2002;DHT22;1003;48.002;7.788;2023-06-14T10:24:29;24.60;94.90
2002;DHT22;1003;48.002;7.788;2023-06-14T10:27:00;24.60;93.30
2002;DHT22;1003;48.002;7.788;2023-06-14T10:29:28;24.70;93.50
2002;DHT22;1003;48.002;7.788;2023-06-14T10:31:58;24.60;94.20
2002;DHT22;1003;48.002;7.788;2023-06-14T10:34:28;24.60;94.30
2002;DHT22;1003;48.002;7.788;2023-06-14T10:37:04;24.80;94.80
2002;DHT22;1003;48.002;7.788;2023-06-14T10:39:33;24.80;93.10
2002;DHT22;1003;48.002;7.788;2023-06-14T10:42:06;24.80;92.20
2002;DHT22;1003;48.002;7.788;2023-06-14T10:44:40;24.80;93.60
2002;DHT22;1003;48.002;7.788;2023-06-14T10:47:10;24.80;93.10
2002;DHT22;1003;48.002;7.788;2023-06-14T10:49:50;24.70;93.10
2002;DHT22;1003;48.002;7.788;2023-06-14T10:52:22;24.80;94.00
2002;DHT22;1003;48.002;7.788;2023-06-14T10:55:04;24.90;92.70
2002;DHT22;1003;48.002;7.788;2023-06-14T10:57:37;24.90;92.50
2002;DHT22;1003;48.002;7.788;2023-06-14T11:00:07;24.90;93.30
2002;DHT22;1003;48.002;7.788;2023-06-14T11:05:58;25.10;93.00
2002;DHT22;1003;48.002;7.788;2023-06-14T11:08:40;25.10;92.90
2002;DHT22;1003;48.002;7.788;2023-06-14T11:11:32;25.30;92.70
2002;DHT22;1003;48.002;7.788;2023-06-14T11:14:01;25.40;92.10
2002;DHT22;1003;48.002;7.788;2023-06-14T11:16:29;25.40;92.00
2002;DHT22;1003;48.002;7.788;2023-06-14T11:19:00;25.50;91.20
2002;DHT22;1003;48.002;7.788;2023-06-14T11:21:29;25.40;90.50
2002;DHT22;1003;48.002;7.788;2023-06-14T11:23:59;25.30;91.20
2002;DHT22;1003;48.002;7.788;2023-06-14T11:26:26;25.30;90.80
2002;DHT22;1003;48.002;7.788;2023-06-14T11:28:57;25.20;91.10
2002;DHT22;1003;48.002;7.788;2023-06-14T11:31:27;25.30;90.50
2002;DHT22;1003;48.002;7.788;2023-06-14T11:33:55;25.30;90.60
2002;DHT22;1003;48.002;7.788;2023-06-14T11:36:26;25.40;91.20
2002;DHT22;1003;48.002;7.788;2023-06-14T11:38:58;25.40;91.20
2002;DHT22;1003;48.002;7.788;2023-06-14T11:41:32;25.40;91.00
2002;DHT22;1003;48.002;7.788;2023-06-14T11:44:01;25.40;90.60
2002;DHT22;1003;48.002;7.788;2023-06-14T11:46:30;25.40;91.40
2002;DHT22;1003;48.002;7.788;2023-06-14T11:48:58;25.40;90.80
2002;DHT22;1003;48.002;7.788;2023-06-14T11:51:28;25.30;91.50
2002;DHT22;1003;48.002;7.788;2023-06-14T11:53:56;25.30;91.50
2002;DHT22;1003;48.002;7.788;2023-06-14T11:56:24;25.40;92.20
2002;DHT22;1003;48.002;7.788;2023-06-14T11:58:52;25.40;91.90
2002;DHT22;1003;48.002;7.788;2023-06-14T12:01:22;25.70;91.60
2002;DHT22;1003;48.002;7.788;2023-06-14T12:03:53;25.70;91.10
2002;DHT22;1003;48.002;7.788;2023-06-14T12:06:26;25.70;91.40
2002;DHT22;1003;48.002;7.788;2023-06-14T12:08:58;25.70;91.50
2002;DHT22;1003;48.002;7.788;2023-06-14T12:11:34;25.70;91.90
2002;DHT22;1003;48.002;7.788;2023-06-14T12:14:03;25.80;91.00
2002;DHT22;1003;48.002;7.788;2023-06-14T12:16:32;25.80;91.10
2002;DHT22;1003;48.002;7.788;2023-06-14T12:19:08;25.80;91.60
2002;DHT22;1003;48.002;7.788;2023-06-14T12:21:40;25.90;91.00
2002;DHT22;1003;48.002;7.788;2023-06-14T12:24:08;26.00;90.90
2002;DHT22;1003;48.002;7.788;2023-06-14T12:26:38;26.10;90.30
2002;DHT22;1003;48.002;7.788;2023-06-14T12:29:06;26.20;90.70
2002;DHT22;1003;48.002;7.788;2023-06-14T12:31:34;26.30;90.10
2002;DHT22;1003;48.002;7.788;2023-06-14T12:34:03;26.20;89.70
2002;DHT22;1003;48.002;7.788;2023-06-14T12:36:30;26.20;87.70
2002;DHT22;1003;48.002;7.788;2023-06-14T12:38:57;26.00;87.90
2002;DHT22;1003;48.002;7.788;2023-06-14T12:41:25;26.10;89.20
2002;DHT22;1003;48.002;7.788;2023-06-14T12:43:52;26.20;89.60
2002;DHT22;1003;48.002;7.788;2023-06-14T12:46:20;26.10;87.90
2002;DHT22;1003;48.002;7.788;2023-06-14T12:48:47;26.00;88.60
2002;DHT22;1003;48.002;7.788;2023-06-14T12:51:16;26.00;88.90
2002;DHT22;1003;48.002;7.788;2023-06-14T12:53:43;26.10;90.10
2002;DHT22;1003;48.002;7.788;2023-06-14T12:56:10;26.10;89.90
2002;DHT22;1003;48.002;7.788;2023-06-14T12:58:38;26.10;88.60
2002;DHT22;1003;48.002;7.788;2023-06-14T13:01:05;26.10;88.60
2002;DHT22;1003;48.002;7.788;2023-06-14T13:03:32;26.10;90.40
2002;DHT22;1003;48.002;7.788;2023-06-14T13:06:00;26.20;87.50
2002;DHT22;1003;48.002;7.788;2023-06-14T13:08:29;26.10;88.10
2002;DHT22;1003;48.002;7.788;2023-06-14T13:10:56;26.10;89.60
2002;DHT22;1003;48.002;7.788;2023-06-14T13:13:24;26.00;88.80
2002;DHT22;1003;48.002;7.788;2023-06-14T13:15:51;26.00;88.50
2002;DHT22;1003;48.002;7.788;2023-06-14T13:18:18;26.20;89.60
2002;DHT22;1003;48.002;7.788;2023-06-14T13:20:46;26.20;88.80
2002;DHT22;1003;48.002;7.788;2023-06-14T13:23:15;26.20;90.00
2002;DHT22;1003;48.002;7.788;2023-06-14T13:25:44;26.30;88.70
2002;DHT22;1003;48.002;7.788;2023-06-14T13:28:11;26.40;89.40
2002;DHT22;1003;48.002;7.788;2023-06-14T13:30:39;26.40;87.50
2002;DHT22;1003;48.002;7.788;2023-06-14T13:33:06;26.40;88.20
2002;DHT22;1003;48.002;7.788;2023-06-14T13:35:33;26.50;88.60
2002;DHT22;1003;48.002;7.788;2023-06-14T13:38:00;26.50;87.30
2002;DHT22;1003;48.002;7.788;2023-06-14T13:40:27;26.30;87.50
2002;DHT22;1003;48.002;7.788;2023-06-14T13:42:55;26.20;87.60
2002;DHT22;1003;48.002;7.788;2023-06-14T13:45:22;26.10;87.00
2002;DHT22;1003;48.002;7.788;2023-06-14T13:47:49;26.10;86.60
2002;DHT22;1003;48.002;7.788;2023-06-14T13:50:17;26.10;88.80
2002;DHT22;1003;48.002;7.788;2023-06-14T13:52:44;26.30;87.70
2002;DHT22;1003;48.002;7.788;2023-06-14T13:55:11;26.30;87.20
2002;DHT22;1003;48.002;7.788;2023-06-14T13:57:39;26.30;87.60
2002;DHT22;1003;48.002;7.788;2023-06-14T14:00:09;26.30;87.70
2002;DHT22;1003;48.002;7.788;2023-06-14T14:02:36;26.40;86.10
2002;DHT22;1003;48.002;7.788;2023-06-14T14:05:05;26.30;86.60
2002;DHT22;1003;48.002;7.788;2023-06-14T14:07:33;26.30;86.70
2002;DHT22;1003;48.002;7.788;2023-06-14T14:10:01;26.30;86.80
2002;DHT22;1003;48.002;7.788;2023-06-14T14:12:28;26.20;86.20
2002;DHT22;1003;48.002;7.788;2023-06-14T14:14:55;26.20;84.70
2002;DHT22;1003;48.002;7.788;2023-06-14T14:17:24;26.10;87.80
2002;DHT22;1003;48.002;7.788;2023-06-14T14:19:52;26.10;87.60
2002;DHT22;1003;48.002;7.788;2023-06-14T14:22:19;26.10;85.90
2002;DHT22;1003;48.002;7.788;2023-06-14T14:24:46;26.20;87.60
2002;DHT22;1003;48.002;7.788;2023-06-14T14:27:13;26.20;87.70
2002;DHT22;1003;48.002;7.788;2023-06-14T14:29:40;26.30;87.70
2002;DHT22;1003;48.002;7.788;2023-06-14T14:32:08;26.30;85.80
2002;DHT22;1003;48.002;7.788;2023-06-14T14:34:40;26.20;86.80
2002;DHT22;1003;48.002;7.788;2023-06-14T14:37:07;26.10;85.00
2002;DHT22;1003;48.002;7.788;2023-06-14T14:39:36;26.00;86.30
2002;DHT22;1003;48.002;7.788;2023-06-14T14:42:04;26.00;85.90
2002;DHT22;1003;48.002;7.788;2023-06-14T14:44:33;26.00;87.20
2002;DHT22;1003;48.002;7.788;2023-06-14T14:47:01;26.00;86.10
2002;DHT22;1003;48.002;7.788;2023-06-14T14:49:28;26.00;85.40
2002;DHT22;1003;48.002;7.788;2023-06-14T14:51:56;26.10;86.70
2002;DHT22;1003;48.002;7.788;2023-06-14T14:54:23;26.10;86.00
2002;DHT22;1003;48.002;7.788;2023-06-14T14:56:51;26.00;85.90
2002;DHT22;1003;48.002;7.788;2023-06-14T14:59:18;26.10;86.10
2002;DHT22;1003;48.002;7.788;2023-06-14T15:01:47;26.00;85.40
2002;DHT22;1003;48.002;7.788;2023-06-14T15:04:14;25.90;85.90
2002;DHT22;1003;48.002;7.788;2023-06-14T15:06:41;25.80;85.30
2002;DHT22;1003;48.002;7.788;2023-06-14T15:09:10;25.80;86.40
2002;DHT22;1003;48.002;7.788;2023-06-14T15:11:37;25.80;86.70
2002;DHT22;1003;48.002;7.788;2023-06-14T15:14:04;25.80;86.60
2002;DHT22;1003;48.002;7.788;2023-06-14T15:16:31;25.80;86.20
2002;DHT22;1003;48.002;7.788;2023-06-14T15:18:58;25.80;85.30
2002;DHT22;1003;48.002;7.788;2023-06-14T15:21:25;25.70;86.70
2002;DHT22;1003;48.002;7.788;2023-06-14T15:23:52;25.70;86.70
2002;DHT22;1003;48.002;7.788;2023-06-14T15:26:20;25.80;89.10
2002;DHT22;1003;48.002;7.788;2023-06-14T15:28:49;25.90;87.20
2002;DHT22;1003;48.002;7.788;2023-06-14T15:31:17;25.80;86.30
2002;DHT22;1003;48.002;7.788;2023-06-14T15:33:44;25.80;86.70
2002;DHT22;1003;48.002;7.788;2023-06-14T15:36:11;25.70;86.50
2002;DHT22;1003;48.002;7.788;2023-06-14T15:38:38;25.80;87.10
2002;DHT22;1003;48.002;7.788;2023-06-14T15:41:05;25.70;87.10
2002;DHT22;1003;48.002;7.788;2023-06-14T15:43:34;25.70;85.50
2002;DHT22;1003;48.002;7.788;2023-06-14T15:46:01;25.70;88.90
2002;DHT22;1003;48.002;7.788;2023-06-14T15:48:28;25.80;86.20
2002;DHT22;1003;48.002;7.788;2023-06-14T15:50:55;25.70;85.30
2002;DHT22;1003;48.002;7.788;2023-06-14T15:53:23;25.60;84.70
2002;DHT22;1003;48.002;7.788;2023-06-14T15:55:50;25.50;85.10
2002;DHT22;1003;48.002;7.788;2023-06-14T15:58:17;25.50;86.40
2002;DHT22;1003;48.002;7.788;2023-06-14T16:00:45;25.60;86.70
2002;DHT22;1003;48.002;7.788;2023-06-14T16:03:12;25.60;85.20
2002;DHT22;1003;48.002;7.788;2023-06-14T16:05:40;25.50;85.70
2002;DHT22;1003;48.002;7.788;2023-06-14T16:08:07;25.50;87.30
2002;DHT22;1003;48.002;7.788;2023-06-14T16:10:34;25.50;87.80
2002;DHT22;1003;48.002;7.788;2023-06-14T16:13:02;25.50;86.00